Saturday, October 25, 2014, 3:37 PM EDT

KSHD, Staunton / Shenandoah

Location: Weyers Cave, VA, United States Lat: 38.267
Local Time: 3:37 PM EDT (19:37 GMT) Lon: -78.9
Time Zone: US/Eastern Elev: 1200 ft

Show me the last for .
Show Decoded

2014-10-25 15:15 METAR KSHD 251915Z AUTO 22010KT 10SM CLR 22/04 A2986 RMK AO2 T02210040 =
2014-10-25 14:55 METAR KSHD 251855Z AUTO 23008KT 10SM CLR 22/03 A2987 RMK AO2 T02180034 =
2014-10-25 14:35 METAR KSHD 251835Z AUTO 24006KT 10SM CLR 22/04 A2988 RMK AO2 T02160038 =
2014-10-25 14:15 METAR KSHD 251815Z AUTO 17008KT 10SM SCT100 21/05 A2989 RMK AO2 T02090045 =
2014-10-25 13:55 METAR KSHD 251755Z AUTO 19007KT 10SM SCT100 20/04 A2991 RMK AO2 T02020041 10202
                 21001 =
2014-10-25 13:35 METAR KSHD 251735Z AUTO 20008KT 10SM CLR 20/04 A2992 RMK AO2 T01980039 =
2014-10-25 13:15 METAR KSHD 251715Z AUTO 22009KT 10SM CLR 20/04 A2993 RMK AO2 T01960040 =
2014-10-25 12:55 METAR KSHD 251655Z AUTO 21006KT 10SM CLR 19/03 A2995 RMK AO2 T01920034 =
2014-10-25 12:35 METAR KSHD 251635Z AUTO 23007KT 10SM CLR 19/04 A2996 RMK AO2 T01870038 =
2014-10-25 12:15 METAR KSHD 251615Z AUTO 21008KT 10SM CLR 18/04 A2997 RMK AO2 T01790040 =
2014-10-25 11:55 METAR KSHD 251555Z AUTO 17005KT 10SM CLR 17/05 A2998 RMK AO2 T01700047 =
2014-10-25 11:35 METAR KSHD 251535Z AUTO 21005KT 10SM CLR 16/04 A2999 RMK AO2 T01600044 =
2014-10-25 11:15 METAR KSHD 251515Z AUTO 16004KT 10SM CLR 15/06 A3001 RMK AO2 T01470055 =
2014-10-25 10:55 METAR KSHD 251455Z AUTO 18006KT 10SM CLR 13/05 A3001 RMK AO2 T01320051 =
2014-10-25 10:35 METAR KSHD 251435Z AUTO 18004KT 10SM CLR 12/04 A3003 RMK AO2 T01150041 =
2014-10-25 10:15 METAR KSHD 251415Z AUTO 00000KT 10SM CLR 10/04 A3003 RMK AO2 T01000036 =
2014-10-25 09:55 METAR KSHD 251355Z AUTO 00000KT 10SM CLR 08/04 A3004 RMK AO2 T00790035 =
2014-10-25 09:35 METAR KSHD 251335Z AUTO 23003KT 10SM CLR 06/03 A3005 RMK AO2 T00590030 =
2014-10-25 09:15 METAR KSHD 251315Z AUTO 00000KT 10SM CLR 04/02 A3005 RMK AO2 T00380021 =
2014-10-25 08:35 METAR KSHD 251235Z AUTO 00000KT 4SM BR CLR 01/00 A3005 RMK AO2 T00111001 =
2014-10-25 08:15 METAR KSHD 251215Z AUTO 00000KT 7SM CLR 00/M01 A3005 RMK AO2 T00001014 =
2014-10-25 07:55 METAR KSHD 251155Z AUTO 00000KT 10SM CLR 00/M01 A3003 RMK AO2 T00001011 10020
                 21012 =
2014-10-25 07:35 METAR KSHD 251135Z AUTO 00000KT 10SM CLR 00/M02 A3002 RMK AO2 T10041019 =
2014-10-25 07:15 METAR KSHD 251115Z AUTO 00000KT 10SM CLR 00/M02 A3002 RMK AO2 T10051020 =
2014-10-25 06:55 METAR KSHD 251055Z AUTO 00000KT 10SM CLR 00/M02 A3003 RMK AO2 T10031017 =
2014-10-25 06:35 METAR KSHD 251035Z AUTO 00000KT 10SM CLR 00/M02 A3003 RMK AO2 T10011016 =
2014-10-25 06:15 METAR KSHD 251015Z AUTO 00000KT 10SM CLR 00/M02 A3003 RMK AO2 T10011018 =
2014-10-25 05:55 METAR KSHD 250955Z AUTO 00000KT 10SM CLR 00/M02 A3003 RMK AO2 T10011016 =
2014-10-25 05:35 METAR KSHD 250935Z AUTO 00000KT 10SM CLR M01/M03 A3003 RMK AO2 T10121026 =
2014-10-25 05:15 METAR KSHD 250915Z AUTO 00000KT 10SM CLR 00/M01 A3003 RMK AO2 T00011010 =
2014-10-25 04:55 METAR KSHD 250855Z AUTO 00000KT 10SM CLR 00/M01 A3002 RMK AO2 T00001014 =
2014-10-25 04:35 METAR KSHD 250835Z AUTO 00000KT 10SM CLR 00/M01 A3003 RMK AO2 T00001012 =
2014-10-25 03:55 METAR KSHD 250755Z AUTO 00000KT 10SM CLR 01/M01 A3003 RMK AO2 T00061006 =
2014-10-25 03:35 METAR KSHD 250735Z AUTO 00000KT 7SM CLR 02/00 A3002 RMK AO2 T00150002 =
2014-10-25 03:15 METAR KSHD 250715Z AUTO 00000KT 7SM CLR 01/00 A3002 RMK AO2 T00091001 =
2014-10-25 02:55 METAR KSHD 250655Z AUTO 00000KT 10SM CLR 01/M01 A3002 RMK AO2 T00071006 =
2014-10-25 02:35 METAR KSHD 250635Z AUTO 00000KT 7SM CLR 02/00 A3002 RMK AO2 T00180003 =
2014-10-25 02:15 METAR KSHD 250615Z AUTO 00000KT 10SM CLR 01/00 A3003 RMK AO2 T00081003 =
2014-10-25 01:55 METAR KSHD 250555Z AUTO 00000KT 7SM CLR 02/00 A3003 RMK AO2 T00151002 10129
                 20015 402000015 =
2014-10-25 01:35 METAR KSHD 250535Z AUTO 00000KT 5SM BR CLR 02/01 A3003 RMK AO2 T00220007 =
2014-10-25 01:15 METAR KSHD 250515Z AUTO 00000KT 10SM CLR 02/00 A3003 RMK AO2 T00190004 =
2014-10-25 00:55 METAR KSHD 250455Z AUTO 00000KT 10SM CLR 03/01 A3003 RMK AO2 T00300013 =
2014-10-25 00:35 METAR KSHD 250435Z AUTO 00000KT 10SM CLR 02/00 A3003 RMK AO2 T00200001 =
2014-10-25 00:15 METAR KSHD 250415Z AUTO 00000KT 10SM CLR 04/02 A3002 RMK AO2 T00400021 =
2014-10-24 23:55 METAR KSHD 250355Z AUTO 00000KT 10SM CLR 03/01 A3002 RMK AO2 T00340014 =
2014-10-24 23:15 METAR KSHD 250315Z AUTO 00000KT 5SM HZ CLR 04/01 A3002 RMK AO2 T00430013 =
2014-10-24 22:35 METAR KSHD 250235Z AUTO 00000KT 10SM CLR 06/02 A3002 RMK AO2 T00580024 =
2014-10-24 22:15 METAR KSHD 250215Z AUTO 00000KT 10SM CLR 05/02 A3002 RMK AO2 T00510024 =
2014-10-24 21:55 METAR KSHD 250155Z AUTO 00000KT 10SM CLR 07/03 A3001 RMK AO2 T00690033 =
2014-10-24 21:35 METAR KSHD 250135Z AUTO 00000KT 7SM CLR 08/03 A3001 RMK AO2 T00800033 =
2014-10-24 21:15 METAR KSHD 250115Z AUTO 06003KT 10SM CLR 08/03 A3000 RMK AO2 T00770029 =
2014-10-24 20:55 METAR KSHD 250055Z AUTO 00000KT 10SM CLR 08/04 A2999 RMK AO2 T00820042 =
2014-10-24 20:35 METAR KSHD 250035Z AUTO 00000KT 7SM CLR 10/04 A2999 RMK AO2 T01030038 =
2014-10-24 20:15 METAR KSHD 250015Z AUTO 00000KT 7SM CLR 11/05 A2999 RMK AO2 T01050045 =
2014-10-24 19:55 METAR KSHD 242355Z AUTO 00000KT 10SM CLR 13/04 A3000 RMK AO2 T01260037 10200
                 20105 =
2014-10-24 19:35 METAR KSHD 242335Z AUTO 00000KT 10SM CLR 11/04 A2999 RMK AO2 T01060044 =
2014-10-24 19:15 METAR KSHD 242315Z AUTO 00000KT 10SM CLR 12/05 A2998 RMK AO2 T01240048 =
2014-10-24 18:55 METAR KSHD 242255Z AUTO 00000KT 10SM CLR 14/05 A2998 RMK AO2 T01350049 =
2014-10-24 18:35 METAR KSHD 242235Z AUTO 05003KT 10SM CLR 16/04 A2997 RMK AO2 T01570040 =
2014-10-24 18:15 METAR KSHD 242215Z AUTO 00000KT 1SM HZ VV007 17/04 A2997 RMK AO2 VIS 1/2V5
                 T01720038 =
2014-10-24 17:55 METAR KSHD 242155Z AUTO 00000KT 10SM CLR 19/03 A2996 RMK AO2 T01870032 =
2014-10-24 17:35 METAR KSHD 242135Z AUTO 00000KT 10SM CLR 19/03 A2996 RMK AO2 T01930031 =
2014-10-24 17:15 METAR KSHD 242115Z AUTO 00000KT 10SM CLR 20/02 A2996 RMK AO2 T01950018 =
2014-10-24 16:55 METAR KSHD 242055Z AUTO 11003KT 10SM CLR 20/03 A2996 RMK AO2 T01970028 =
2014-10-24 16:35 METAR KSHD 242035Z AUTO 00000KT 10SM CLR 20/03 A2996 RMK AO2 T01970025 =
2014-10-24 16:15 METAR KSHD 242015Z AUTO 00000KT 10SM CLR 20/02 A2997 RMK AO2 T01990024 =
2014-10-24 15:55 METAR KSHD 241955Z AUTO 00000KT 10SM CLR 19/02 A2997 RMK AO2 T01930021 =

Support USWX by starting your Amazon purchase here.